Time;durP1;ratioP1;P1;durP2;ratioP2;P2;SDS_P1;SDS_P2;PMS_P1;PMS_P2;Temp;Humidity;BMP_temperature;BMP_pressure;BME280_temperature;BME280_humidity;BME280_pressure;Samples;Min_cycle;Max_cycle;Signal;HPM_P1;HPM_P2
2022/05/13 00:02:50;;;;;;;8.10;2.85;;;;;;;;;;10454093;28;20048;-72
2022/05/13 00:07:52;;;;;;;7.80;2.45;;;;;;;;;;10431551;28;20135;-72
2022/05/13 00:12:53;;;;;;;6.57;2.88;;;;;;;;;;10429120;28;20045;-72
2022/05/13 00:17:55;;;;;;;8.25;3.63;;;;;;;;;;10431821;28;20051;-72
2022/05/13 00:22:56;;;;;;;8.98;2.28;;;;;;;;;;10415588;28;20500;-72
2022/05/13 00:27:59;;;;;;;7.97;2.53;;;;;;;;;;10427258;28;20496;-72
2022/05/13 00:33:00;;;;;;;10.55;2.97;;;;;;;;;;10451165;28;20044;-72
2022/05/13 00:38:01;;;;;;;6.55;2.40;;;;;;;;;;10425275;28;20043;-73
2022/05/13 00:43:04;;;;;;;5.13;3.03;;;;;;;;;;10424668;28;20401;-73
2022/05/13 00:48:07;;;;;;;6.53;1.92;;;;;;;;;;10422922;28;20044;-73
2022/05/13 00:53:08;;;;;;;7.88;2.30;;;;;;;;;;10408652;28;20050;-73
2022/05/13 00:58:12;;;;;;;8.15;2.50;;;;;;;;;;10419492;28;20078;-72
2022/05/13 01:03:14;;;;;;;5.85;1.90;;;;;;;;;;10439669;28;20059;-73
2022/05/13 01:08:15;;;;;;;7.35;2.40;;;;;;;;;;10418459;28;20098;-73
2022/05/13 01:13:21;;;;;;;8.77;2.35;;;;;;;;;;10406530;28;20052;-73
2022/05/13 01:18:26;;;;;;;4.25;1.90;;;;;;;;;;10421684;28;20041;-73
2022/05/13 01:23:30;;;;;;;10.40;2.15;;;;;;;;;;10421526;28;20049;-73
2022/05/13 01:28:40;;;;;;;7.50;2.70;;;;;;;;;;10418464;28;20056;-73
2022/05/13 01:33:41;;;;;;;9.15;2.63;;;;;;;;;;10438193;28;20540;-73
2022/05/13 01:38:43;;;;;;;7.32;2.17;;;;;;;;;;10423252;28;20522;-72
2022/05/13 01:43:46;;;;;;;6.20;2.05;;;;;;;;;;10411306;28;20053;-73
2022/05/13 01:48:47;;;;;;;7.47;1.90;;;;;;;;;;10422610;28;20043;-74
2022/05/13 01:53:49;;;;;;;6.57;2.30;;;;;;;;;;10424318;28;20578;-72
2022/05/13 01:58:50;;;;;;;4.88;2.20;;;;;;;;;;10424751;28;20064;-72
2022/05/13 02:03:52;;;;;;;5.57;1.77;;;;;;;;;;10434270;28;20056;-74
2022/05/13 02:08:54;;;;;;;10.65;2.30;;;;;;;;;;10424909;28;20045;-73
2022/05/13 02:13:56;;;;;;;5.57;2.20;;;;;;;;;;10435811;28;20064;-71
2022/05/13 02:18:57;;;;;;;6.90;2.15;;;;;;;;;;10416161;28;20041;-73
2022/05/13 02:23:58;;;;;;;7.65;2.22;;;;;;;;;;10425430;28;20525;-73
2022/05/13 02:29:01;;;;;;;7.88;2.33;;;;;;;;;;10439054;28;20724;-72
2022/05/13 02:34:02;;;;;;;7.50;2.13;;;;;;;;;;10437303;28;20057;-72
2022/05/13 02:39:04;;;;;;;6.50;2.53;;;;;;;;;;10423297;28;20041;-72
2022/05/13 02:44:05;;;;;;;6.75;2.30;;;;;;;;;;10426578;28;20046;-72
2022/05/13 02:49:14;;;;;;;6.30;2.80;;;;;;;;;;10414433;28;20397;-73
2022/05/13 02:54:16;;;;;;;12.10;2.67;;;;;;;;;;10429379;28;20044;-72
2022/05/13 02:59:17;;;;;;;6.88;2.58;;;;;;;;;;10433849;28;20045;-73
2022/05/13 03:04:19;;;;;;;6.82;2.42;;;;;;;;;;10430374;28;20049;-72
2022/05/13 03:09:20;;;;;;;6.60;2.55;;;;;;;;;;10420291;28;20391;-72
2022/05/13 03:14:22;;;;;;;7.68;2.47;;;;;;;;;;10420930;28;20060;-72
2022/05/13 03:19:23;;;;;;;9.75;2.15;;;;;;;;;;10426181;28;20046;-72
2022/05/13 03:24:24;;;;;;;6.72;2.67;;;;;;;;;;10406145;28;20045;-73
2022/05/13 03:29:27;;;;;;;6.68;2.28;;;;;;;;;;10428712;28;20141;-72
2022/05/13 03:34:31;;;;;;;8.13;2.70;;;;;;;;;;10430134;28;20119;-73
2022/05/13 03:39:33;;;;;;;7.95;2.90;;;;;;;;;;10424608;28;20048;-73
2022/05/13 03:44:35;;;;;;;9.57;2.58;;;;;;;;;;10410967;28;20037;-72
2022/05/13 03:49:37;;;;;;;6.57;2.40;;;;;;;;;;10430891;28;20128;-74
2022/05/13 03:54:38;;;;;;;7.32;2.40;;;;;;;;;;10425778;28;20048;-73
2022/05/13 03:59:40;;;;;;;6.60;2.50;;;;;;;;;;10426628;28;20041;-73
2022/05/13 04:10:03;;;;;;;9.50;2.42;;;;;;;;;;10425275;28;20053;-73
2022/05/13 04:20:24;;;;;;;8.63;2.58;;;;;;;;;;10428019;28;20049;-73
2022/05/13 04:25:26;;;;;;;9.32;2.95;;;;;;;;;;10401720;28;20041;-73
2022/05/13 04:30:27;;;;;;;7.20;2.83;;;;;;;;;;10427663;28;20037;-72
2022/05/13 04:35:29;;;;;;;4.05;2.00;;;;;;;;;;10442486;28;20044;-72
2022/05/13 04:40:30;;;;;;;8.82;2.58;;;;;;;;;;10424321;28;20049;-72
2022/05/13 04:45:32;;;;;;;9.32;2.65;;;;;;;;;;10416318;28;20132;-72
2022/05/13 04:50:34;;;;;;;11.00;2.60;;;;;;;;;;10396498;28;20393;-73
2022/05/13 04:55:36;;;;;;;7.40;2.88;;;;;;;;;;10423063;28;20052;-72
2022/05/13 05:00:38;;;;;;;9.50;2.60;;;;;;;;;;10420644;28;20090;-73
2022/05/13 05:05:41;;;;;;;7.68;2.70;;;;;;;;;;10421699;28;20040;-72
2022/05/13 05:10:44;;;;;;;9.95;2.70;;;;;;;;;;10426466;28;20044;-72
2022/05/13 05:15:45;;;;;;;10.23;2.85;;;;;;;;;;10417551;28;20072;-72
2022/05/13 05:20:47;;;;;;;17.58;2.60;;;;;;;;;;10428794;28;20060;-71
2022/05/13 05:25:49;;;;;;;11.60;2.60;;;;;;;;;;10428866;28;20055;-72
2022/05/13 05:31:00;;;;;;;9.48;2.50;;;;;;;;;;10436922;28;20048;-75
2022/05/13 05:36:01;;;;;;;10.55;2.67;;;;;;;;;;10430656;28;20064;-73
2022/05/13 05:41:03;;;;;;;11.30;2.78;;;;;;;;;;10438255;28;20139;-74
2022/05/13 05:46:04;;;;;;;9.98;2.30;;;;;;;;;;10427887;28;20049;-74
2022/05/13 05:51:06;;;;;;;10.90;2.42;;;;;;;;;;10413654;28;20144;-72
2022/05/13 06:01:28;;;;;;;9.30;2.40;;;;;;;;;;10440702;28;20406;-73
2022/05/13 06:06:30;;;;;;;10.70;2.45;;;;;;;;;;10446226;28;20044;-72
2022/05/13 06:11:32;;;;;;;9.00;2.83;;;;;;;;;;10446271;28;20045;-72
2022/05/13 06:16:33;;;;;;;11.00;2.70;;;;;;;;;;10435037;28;20044;-73
2022/05/13 06:21:37;;;;;;;9.85;2.58;;;;;;;;;;10440131;28;20321;-74
2022/05/13 06:26:40;;;;;;;11.57;2.75;;;;;;;;;;10436642;28;20059;-72
2022/05/13 06:31:42;;;;;;;10.65;3.15;;;;;;;;;;10438587;28;20049;-72
2022/05/13 06:36:44;;;;;;;8.55;2.15;;;;;;;;;;10415219;28;20044;-73
2022/05/13 06:41:46;;;;;;;18.05;3.85;;;;;;;;;;10412567;28;20500;-73
2022/05/13 06:46:47;;;;;;;12.75;3.03;;;;;;;;;;10414418;28;20044;-72
2022/05/13 06:51:49;;;;;;;10.57;2.60;;;;;;;;;;10441353;28;20139;-72
2022/05/13 06:56:54;;;;;;;13.70;3.22;;;;;;;;;;10432646;28;20040;-72
2022/05/13 07:01:56;;;;;;;13.32;3.08;;;;;;;;;;10434191;28;20033;-72
2022/05/13 07:06:59;;;;;;;15.32;3.03;;;;;;;;;;10411834;28;20041;-74
2022/05/13 07:12:01;;;;;;;12.27;3.00;;;;;;;;;;10433450;28;20059;-73
2022/05/13 07:17:03;;;;;;;14.73;3.17;;;;;;;;;;10435725;28;20398;-72
2022/05/13 07:22:05;;;;;;;12.40;2.88;;;;;;;;;;10428510;28;20520;-75
2022/05/13 07:27:07;;;;;;;18.55;3.08;;;;;;;;;;10428085;28;20464;-74
2022/05/13 07:32:08;;;;;;;10.52;2.80;;;;;;;;;;10438632;28;20403;-74
2022/05/13 07:37:10;;;;;;;14.88;3.10;;;;;;;;;;10437924;28;20147;-74
2022/05/13 07:42:11;;;;;;;15.10;3.22;;;;;;;;;;10434525;28;20437;-74
2022/05/13 07:47:14;;;;;;;10.90;3.10;;;;;;;;;;10437304;28;20040;-74
2022/05/13 07:52:15;;;;;;;13.10;3.63;;;;;;;;;;10437322;28;20528;-74
2022/05/13 07:57:17;;;;;;;11.30;3.33;;;;;;;;;;10427141;28;20059;-74
2022/05/13 08:02:18;;;;;;;10.68;2.75;;;;;;;;;;10444729;28;20041;-75
2022/05/13 08:07:20;;;;;;;12.15;2.85;;;;;;;;;;10435365;28;20068;-74
2022/05/13 08:12:21;;;;;;;12.27;3.20;;;;;;;;;;10450447;28;20045;-74
2022/05/13 08:17:22;;;;;;;12.18;2.95;;;;;;;;;;10432475;28;20047;-75
2022/05/13 08:22:24;;;;;;;11.45;2.47;;;;;;;;;;10431246;28;20049;-74
2022/05/13 08:27:25;;;;;;;15.27;3.15;;;;;;;;;;10424664;28;20444;-74
2022/05/13 08:32:28;;;;;;;9.45;2.35;;;;;;;;;;10439474;28;20380;-74
2022/05/13 08:37:29;;;;;;;11.10;2.33;;;;;;;;;;10436316;28;20064;-74
2022/05/13 08:42:36;;;;;;;12.85;3.42;;;;;;;;;;10438019;28;20057;-73
2022/05/13 08:47:52;;;;;;;11.60;2.03;;;;;;;;;;10412618;28;20050;-74
2022/05/13 08:53:16;;;;;;;9.02;1.80;;;;;;;;;;10422615;28;20057;-71
2022/05/13 08:58:19;;;;;;;6.32;1.80;;;;;;;;;;10422785;28;20053;-72
2022/05/13 09:03:24;;;;;;;10.05;2.55;;;;;;;;;;10441047;28;20045;-72
2022/05/13 09:08:25;;;;;;;7.55;1.60;;;;;;;;;;10431998;28;20060;-74
2022/05/13 09:13:35;;;;;;;7.70;1.80;;;;;;;;;;10424460;28;20053;-72
2022/05/13 09:18:53;;;;;;;10.30;1.92;;;;;;;;;;10438531;28;20571;-72
2022/05/13 09:23:55;;;;;;;11.27;2.30;;;;;;;;;;10387583;28;20041;-74
2022/05/13 09:28:59;;;;;;;10.05;1.90;;;;;;;;;;10415736;28;20622;-72
2022/05/13 09:34:01;;;;;;;8.20;1.70;;;;;;;;;;10435863;28;20390;-73
2022/05/13 09:39:22;;;;;;;6.68;1.83;;;;;;;;;;10431266;28;20052;-73
2022/05/13 09:44:25;;;;;;;9.15;1.42;;;;;;;;;;10429313;28;20134;-70
2022/05/13 09:49:33;;;;;;;4.18;1.35;;;;;;;;;;10449425;28;20044;-70
2022/05/13 09:54:39;;;;;;;8.00;1.63;;;;;;;;;;10402626;28;20045;-70
2022/05/13 09:59:45;;;;;;;7.75;1.70;;;;;;;;;;10425082;28;20045;-69
2022/05/13 10:04:50;;;;;;;3.95;1.23;;;;;;;;;;10422487;28;20056;-67
2022/05/13 10:15:15;;;;;;;28.80;2.28;;;;;;;;;;10434186;28;20212;-71
2022/05/13 10:20:28;;;;;;;5.50;1.13;;;;;;;;;;10405489;28;20508;-70
2022/05/13 10:25:46;;;;;;;6.95;1.25;;;;;;;;;;10425406;28;20492;-70
2022/05/13 10:30:54;;;;;;;8.20;1.23;;;;;;;;;;10432253;28;20052;-71
2022/05/13 10:35:59;;;;;;;7.95;1.30;;;;;;;;;;10447417;28;20080;-70
2022/05/13 10:41:07;;;;;;;5.43;1.20;;;;;;;;;;10413835;28;20040;-64
2022/05/13 10:46:19;;;;;;;8.20;1.52;;;;;;;;;;10420454;28;20532;-71
2022/05/13 10:51:21;;;;;;;7.72;1.27;;;;;;;;;;10425153;28;20049;-70
2022/05/13 10:56:24;;;;;;;3.83;1.13;;;;;;;;;;10441566;28;20049;-71
2022/05/13 11:01:31;;;;;;;7.18;1.20;;;;;;;;;;10426532;28;20536;-71
2022/05/13 11:06:36;;;;;;;6.47;1.13;;;;;;;;;;10430544;28;20047;-70
2022/05/13 11:11:38;;;;;;;22.65;2.08;;;;;;;;;;10426661;28;20049;-70
2022/05/13 11:16:46;;;;;;;10.55;1.92;;;;;;;;;;10438484;28;20402;-71
2022/05/13 11:21:53;;;;;;;20.63;1.83;;;;;;;;;;10429117;28;20065;-71
2022/05/13 11:26:58;;;;;;;15.70;1.63;;;;;;;;;;10441695;28;20123;-71
2022/05/13 11:32:03;;;;;;;7.70;1.33;;;;;;;;;;10454735;28;20037;-71
2022/05/13 11:37:07;;;;;;;6.43;1.15;;;;;;;;;;10442613;28;20051;-71
2022/05/13 11:42:08;;;;;;;8.32;1.50;;;;;;;;;;10430876;28;20295;-71
2022/05/13 11:47:19;;;;;;;4.63;1.13;;;;;;;;;;10425261;28;20132;-69
2022/05/13 11:52:28;;;;;;;4.95;1.00;;;;;;;;;;10428215;28;20045;-71
2022/05/13 11:57:42;;;;;;;7.03;1.20;;;;;;;;;;10422390;28;20049;-71
2022/05/13 12:02:47;;;;;;;5.30;1.20;;;;;;;;;;10449004;28;20119;-70
2022/05/13 12:08:01;;;;;;;8.27;1.40;;;;;;;;;;10428615;28;20044;-71
2022/05/13 12:13:09;;;;;;;6.78;1.23;;;;;;;;;;10420517;28;20059;-70
2022/05/13 12:18:19;;;;;;;5.25;1.00;;;;;;;;;;10417113;28;20051;-67
2022/05/13 12:23:33;;;;;;;4.63;1.05;;;;;;;;;;10425908;28;20303;-67
2022/05/13 12:28:39;;;;;;;5.22;1.10;;;;;;;;;;10427629;28;20056;-68
2022/05/13 12:33:46;;;;;;;4.10;1.00;;;;;;;;;;10447639;28;20045;-70
2022/05/13 12:39:06;;;;;;;4.15;1.20;;;;;;;;;;10418920;28;20596;-68
2022/05/13 12:44:14;;;;;;;4.28;0.80;;;;;;;;;;10425352;28;20070;-68
2022/05/13 12:49:22;;;;;;;7.53;1.35;;;;;;;;;;10430694;28;20068;-69
2022/05/13 12:54:24;;;;;;;5.45;1.13;;;;;;;;;;10402116;28;20052;-70
2022/05/13 12:59:31;;;;;;;5.97;1.08;;;;;;;;;;10428387;28;20057;-67
2022/05/13 13:04:35;;;;;;;6.35;1.30;;;;;;;;;;10439314;28;20045;-66
2022/05/13 13:09:47;;;;;;;5.60;1.20;;;;;;;;;;10425756;28;20046;-65
2022/05/13 13:15:08;;;;;;;6.85;1.20;;;;;;;;;;10422266;28;20040;-68
2022/05/13 13:20:12;;;;;;;7.95;1.30;;;;;;;;;;10405029;28;20136;-67
2022/05/13 13:25:20;;;;;;;4.55;1.17;;;;;;;;;;10419566;28;20049;-68
2022/05/13 13:30:22;;;;;;;7.97;1.60;;;;;;;;;;10444915;28;20045;-67
2022/05/13 13:35:32;;;;;;;7.65;1.10;;;;;;;;;;10438219;28;20044;-68
2022/05/13 13:40:44;;;;;;;6.82;1.00;;;;;;;;;;10432366;28;20086;-67
2022/05/13 13:45:50;;;;;;;6.22;1.10;;;;;;;;;;10419261;28;20507;-66
2022/05/13 13:50:53;;;;;;;4.10;1.30;;;;;;;;;;10420648;28;20060;-67
2022/05/13 13:55:57;;;;;;;12.90;1.40;;;;;;;;;;10428225;28;20049;-67
2022/05/13 14:01:06;;;;;;;4.15;1.10;;;;;;;;;;10429364;28;20037;-67
2022/05/13 14:06:11;;;;;;;5.13;1.20;;;;;;;;;;10438369;28;20044;-67
2022/05/13 14:11:13;;;;;;;9.75;1.30;;;;;;;;;;10428075;28;20031;-67
2022/05/13 14:16:42;;;;;;;8.00;1.75;;;;;;;;;;10446086;28;20053;-67
2022/05/13 14:21:49;;;;;;;7.43;1.30;;;;;;;;;;10442974;28;20330;-67
2022/05/13 14:26:54;;;;;;;6.93;1.20;;;;;;;;;;10437948;28;20041;-68
2022/05/13 14:32:02;;;;;;;9.20;2.13;;;;;;;;;;10450961;28;20107;-67
2022/05/13 14:37:05;;;;;;;5.75;1.48;;;;;;;;;;10426896;28;20052;-68
2022/05/13 14:42:13;;;;;;;8.48;1.35;;;;;;;;;;10436441;28;20059;-67
2022/05/13 14:47:30;;;;;;;5.43;1.10;;;;;;;;;;10432971;28;20095;-68
2022/05/13 14:52:38;;;;;;;7.13;1.35;;;;;;;;;;10420665;28;20147;-67
2022/05/13 14:57:43;;;;;;;9.57;1.73;;;;;;;;;;10439002;28;20132;-65
2022/05/13 15:02:55;;;;;;;7.82;1.17;;;;;;;;;;10444153;28;20427;-66
2022/05/13 15:07:58;;;;;;;6.53;1.30;;;;;;;;;;10431112;28;20072;-65
2022/05/13 15:12:59;;;;;;;6.35;1.30;;;;;;;;;;10411395;28;20129;-67
2022/05/13 15:18:02;;;;;;;8.18;1.70;;;;;;;;;;10431930;28;20045;-67
2022/05/13 15:23:03;;;;;;;6.05;1.70;;;;;;;;;;10426713;28;20128;-70
2022/05/13 15:28:04;;;;;;;4.18;1.17;;;;;;;;;;10438902;28;20220;-69
2022/05/13 15:33:06;;;;;;;8.07;1.30;;;;;;;;;;10439707;28;20059;-70
2022/05/13 15:38:09;;;;;;;9.07;1.85;;;;;;;;;;10405983;28;20068;-69
2022/05/13 15:43:10;;;;;;;4.95;1.17;;;;;;;;;;10430902;28;20064;-69
2022/05/13 15:48:13;;;;;;;6.53;1.75;;;;;;;;;;10418239;28;20684;-68
2022/05/13 15:53:15;;;;;;;4.22;0.90;;;;;;;;;;10425724;28;20042;-70
2022/05/13 15:58:25;;;;;;;8.82;1.73;;;;;;;;;;10428340;28;20053;-70
2022/05/13 16:03:27;;;;;;;7.82;1.42;;;;;;;;;;10453555;28;20056;-69
2022/05/13 16:08:28;;;;;;;5.78;1.20;;;;;;;;;;10429507;28;20041;-69
2022/05/13 16:13:34;;;;;;;5.00;1.35;;;;;;;;;;10400800;28;20041;-69
2022/05/13 16:18:39;;;;;;;11.60;1.40;;;;;;;;;;10409901;28;20049;-67
2022/05/13 16:23:43;;;;;;;8.95;1.33;;;;;;;;;;10414940;28;20109;-68
2022/05/13 16:28:44;;;;;;;9.25;1.50;;;;;;;;;;10428510;28;20051;-67
2022/05/13 16:33:46;;;;;;;6.72;1.40;;;;;;;;;;10446156;28;20055;-67
2022/05/13 16:38:47;;;;;;;9.10;1.42;;;;;;;;;;10420004;28;20049;-67
2022/05/13 16:43:48;;;;;;;7.20;1.50;;;;;;;;;;10417459;28;20524;-66
2022/05/13 16:48:50;;;;;;;8.07;1.60;;;;;;;;;;10432321;28;20051;-67
2022/05/13 16:53:51;;;;;;;9.02;1.70;;;;;;;;;;10435331;28;20048;-66
2022/05/13 16:58:53;;;;;;;7.38;1.50;;;;;;;;;;10422719;28;20045;-67
2022/05/13 17:03:55;;;;;;;6.53;1.60;;;;;;;;;;10445423;28;20492;-66
2022/05/13 17:19:37;;;;;;;6.22;1.30;;;;;;;;;;10441998;28;20032;-67
2022/05/13 17:24:44;;;;;;;4.90;1.75;;;;;;;;;;10438376;28;20045;-66
2022/05/13 17:29:46;;;;;;;7.18;1.63;;;;;;;;;;10422204;28;20044;-66
2022/05/13 17:34:48;;;;;;;4.95;1.50;;;;;;;;;;10432910;28;20045;-67
2022/05/13 17:39:49;;;;;;;7.35;1.90;;;;;;;;;;10437713;28;20056;-66
2022/05/13 17:44:51;;;;;;;8.85;1.50;;;;;;;;;;10433940;28;20069;-66
2022/05/13 17:49:52;;;;;;;4.13;1.23;;;;;;;;;;10428965;28;20053;-66
2022/05/13 17:54:55;;;;;;;7.50;1.48;;;;;;;;;;10453686;28;20049;-66
2022/05/13 17:59:57;;;;;;;5.78;2.05;;;;;;;;;;10445437;28;20519;-66
2022/05/13 18:04:59;;;;;;;8.23;1.85;;;;;;;;;;10438639;28;21030;-66
2022/05/13 18:10:02;;;;;;;7.20;1.88;;;;;;;;;;10433874;28;20063;-66
2022/05/13 18:15:03;;;;;;;6.68;1.55;;;;;;;;;;10424380;28;20053;-66
2022/05/13 18:20:06;;;;;;;12.52;1.85;;;;;;;;;;10444276;28;20029;-66
2022/05/13 18:25:08;;;;;;;14.32;1.80;;;;;;;;;;10425718;28;20504;-66
2022/05/13 18:30:09;;;;;;;8.18;1.70;;;;;;;;;;10430447;28;20046;-66
2022/05/13 18:35:11;;;;;;;8.80;1.80;;;;;;;;;;10444545;28;20042;-67
2022/05/13 18:50:52;;;;;;;11.05;1.90;;;;;;;;;;10440652;28;20120;-66
2022/05/13 18:55:57;;;;;;;7.38;1.92;;;;;;;;;;10426983;28;20047;-67
2022/05/13 19:00:59;;;;;;;9.85;1.83;;;;;;;;;;10364973;28;20040;-66
2022/05/13 19:06:03;;;;;;;8.77;1.77;;;;;;;;;;10406679;28;20052;-67
2022/05/13 19:11:04;;;;;;;6.70;1.77;;;;;;;;;;10399959;28;20750;-66
2022/05/13 19:16:06;;;;;;;6.28;1.73;;;;;;;;;;10400947;28;20064;-66
2022/05/13 19:21:08;;;;;;;8.35;1.77;;;;;;;;;;10416639;28;20351;-66
2022/05/13 19:26:12;;;;;;;8.25;1.77;;;;;;;;;;10410318;28;20052;-66
2022/05/13 19:31:16;;;;;;;10.40;1.73;;;;;;;;;;10406733;28;20124;-67
2022/05/13 19:36:19;;;;;;;7.22;2.28;;;;;;;;;;10412952;28;20045;-67
2022/05/13 19:41:20;;;;;;;8.43;2.17;;;;;;;;;;10411715;28;20051;-66
2022/05/13 19:46:23;;;;;;;8.27;1.80;;;;;;;;;;10400111;28;20465;-66
2022/05/13 19:51:24;;;;;;;11.40;1.90;;;;;;;;;;10400574;28;20053;-67
2022/05/13 19:56:27;;;;;;;11.23;2.83;;;;;;;;;;10405601;28;20048;-66
2022/05/13 20:01:28;;;;;;;7.13;1.92;;;;;;;;;;10414281;28;20049;-66
2022/05/13 20:11:50;;;;;;;12.10;1.98;;;;;;;;;;10409548;28;20048;-66
2022/05/13 20:16:51;;;;;;;8.82;2.22;;;;;;;;;;10426127;28;20045;-65
2022/05/13 20:27:15;;;;;;;11.23;2.10;;;;;;;;;;10413119;28;20049;-67
2022/05/13 20:32:16;;;;;;;12.60;2.47;;;;;;;;;;10425781;28;20044;-66
2022/05/13 20:37:17;;;;;;;5.95;2.22;;;;;;;;;;10429632;28;20048;-66
2022/05/13 20:42:19;;;;;;;9.40;2.28;;;;;;;;;;10401367;28;20049;-66
2022/05/13 20:47:21;;;;;;;11.30;2.20;;;;;;;;;;10427253;28;20060;-66
2022/05/13 20:52:22;;;;;;;6.18;2.20;;;;;;;;;;10422983;28;20053;-66
2022/05/13 20:57:24;;;;;;;8.50;2.13;;;;;;;;;;10419499;28;20051;-67
2022/05/13 21:02:25;;;;;;;9.30;2.40;;;;;;;;;;10418651;28;20040;-66
2022/05/13 21:07:28;;;;;;;12.70;2.78;;;;;;;;;;10432082;28;20048;-66
2022/05/13 21:12:30;;;;;;;12.93;3.20;;;;;;;;;;10430141;28;20420;-66
2022/05/13 21:17:32;;;;;;;11.88;3.45;;;;;;;;;;10423859;28;20053;-66
2022/05/13 21:22:33;;;;;;;9.82;3.22;;;;;;;;;;10414770;28;20389;-66
2022/05/13 21:27:36;;;;;;;17.75;3.08;;;;;;;;;;10430725;28;20531;-67
2022/05/13 21:37:57;;;;;;;9.20;3.00;;;;;;;;;;10419553;28;20511;-66
2022/05/13 21:42:59;;;;;;;9.27;2.55;;;;;;;;;;10419914;28;20080;-66
2022/05/13 21:48:00;;;;;;;9.15;2.80;;;;;;;;;;10427101;28;20083;-66
2022/05/13 21:53:02;;;;;;;9.35;2.83;;;;;;;;;;10417611;28;20045;-66
2022/05/13 21:58:05;;;;;;;13.93;3.08;;;;;;;;;;10436324;28;20198;-67
2022/05/13 22:03:08;;;;;;;11.27;3.45;;;;;;;;;;10442674;28;20041;-66
2022/05/13 22:08:11;;;;;;;12.32;3.00;;;;;;;;;;10431269;28;20101;-65
2022/05/13 22:13:12;;;;;;;11.30;3.10;;;;;;;;;;10437598;28;20132;-66
2022/05/13 22:18:14;;;;;;;14.25;3.30;;;;;;;;;;10418147;28;20049;-67
2022/05/13 22:23:17;;;;;;;13.32;4.00;;;;;;;;;;10430506;28;20045;-66
2022/05/13 22:28:19;;;;;;;10.02;3.13;;;;;;;;;;10424369;28;20041;-66
2022/05/13 22:33:20;;;;;;;11.63;2.63;;;;;;;;;;10451318;28;20041;-66
2022/05/13 22:38:21;;;;;;;8.00;3.20;;;;;;;;;;10429454;28;20223;-67
2022/05/13 22:43:23;;;;;;;16.88;3.97;;;;;;;;;;10444196;28;20045;-66
2022/05/13 22:48:26;;;;;;;9.98;3.55;;;;;;;;;;10434950;28;20052;-66
2022/05/13 22:53:27;;;;;;;12.18;3.70;;;;;;;;;;10437643;28;20037;-66
2022/05/13 22:58:29;;;;;;;10.45;3.45;;;;;;;;;;10417738;28;20049;-67
2022/05/13 23:03:34;;;;;;;11.77;3.80;;;;;;;;;;10446494;28;20045;-67
2022/05/13 23:13:58;;;;;;;9.63;3.25;;;;;;;;;;10426046;28;20044;-66
2022/05/13 23:19:01;;;;;;;13.70;3.30;;;;;;;;;;10443207;28;20067;-66
2022/05/13 23:24:03;;;;;;;14.45;3.40;;;;;;;;;;10435234;28;20045;-66
2022/05/13 23:29:05;;;;;;;17.52;3.40;;;;;;;;;;10430614;28;20091;-66
2022/05/13 23:34:07;;;;;;;11.38;3.22;;;;;;;;;;10445641;28;20041;-66
2022/05/13 23:39:09;;;;;;;13.68;3.67;;;;;;;;;;10441451;28;20049;-66
2022/05/13 23:44:10;;;;;;;12.13;3.45;;;;;;;;;;10421594;28;20045;-66
2022/05/13 23:49:12;;;;;;;10.25;3.13;;;;;;;;;;10434428;28;20072;-67
2022/05/13 23:59:33;;;;;;;12.10;3.20;;;;;;;;;;10428979;28;20068;-66
